Time;durP1;ratioP1;P1;durP2;ratioP2;P2;SDS_P1;SDS_P2;PMS_P1;PMS_P2;Temp;Humidity;BMP_temperature;BMP_pressure;BME280_temperature;BME280_humidity;BME280_pressure;Samples;Min_cycle;Max_cycle;Signal;HPM_P1;HPM_P2
2021/01/14 00:00:37;;;;;;;;;;;;;;;28.25;20.87;100121.28;5098646;28;835;-32
2021/01/14 00:03:03;;;;;;;;;;;;;;;28.71;20.67;100125.09;5100044;28;791;-37
2021/01/14 00:05:29;;;;;;;;;;;;;;;29.03;20.04;100121.75;5100013;28;866;-28
2021/01/14 00:07:54;;;;;;;;;;;;;;;29.02;20.30;100120.09;5100246;28;977;-30
2021/01/14 00:10:19;;;;;;;;;;;;;;;28.79;20.39;100115.09;5099485;28;878;-28
2021/01/14 00:12:44;;;;;;;;;;;;;;;28.66;20.47;100110.53;5100165;28;818;-37
2021/01/14 00:15:10;;;;;;;;;;;;;;;28.74;20.36;100121.13;5100018;28;1965;-32
2021/01/14 00:17:35;;;;;;;;;;;;;;;29.05;19.76;100114.25;5099391;28;1019;-34
2021/01/14 00:20:05;;;;;;;;;;;;;;;28.64;20.38;100113.44;5100030;28;736;-33
2021/01/14 00:22:30;;;;;;;;;;;;;;;28.80;20.40;100114.88;5092561;28;949;-32
2021/01/14 00:24:55;;;;;;;;;;;;;;;28.50;21.12;100128.00;5078961;28;1087;-34
2021/01/14 00:27:21;;;;;;;;;;;;;;;28.46;21.03;100127.59;5079642;28;752;-29
2021/01/14 00:29:46;;;;;;;;;;;;;;;28.58;20.85;100139.44;5079525;28;829;-30
2021/01/14 00:32:11;;;;;;;;;;;;;;;28.86;20.81;100134.88;5078892;28;859;-34
2021/01/14 00:34:37;;;;;;;;;;;;;;;29.17;20.36;100116.28;5079447;28;1917;-36
2021/01/14 00:39:47;;;;;;;;;;;;;;;29.02;20.45;100125.50;5098227;28;597;-36
2021/01/14 00:42:16;;;;;;;;;;;;;;;28.46;21.32;100119.50;5099630;28;756;-36
2021/01/14 00:44:41;;;;;;;;;;;;;;;28.77;20.75;100104.47;5099409;28;811;-35
2021/01/14 00:47:06;;;;;;;;;;;;;;;29.18;20.17;100107.97;5099262;28;799;-35
2021/01/14 00:49:32;;;;;;;;;;;;;;;29.27;19.97;100108.56;5099383;28;803;-35
2021/01/14 00:51:57;;;;;;;;;;;;;;;28.83;20.14;100105.50;5099386;28;962;-36
2021/01/14 00:54:22;;;;;;;;;;;;;;;28.37;21.26;100099.91;5098957;28;1910;-32
2021/01/14 00:56:48;;;;;;;;;;;;;;;28.80;20.61;100104.06;5099323;28;870;-29
2021/01/14 00:59:13;;;;;;;;;;;;;;;29.06;20.24;100106.97;5099227;28;811;-34
2021/01/14 01:01:41;;;;;;;;;;;;;;;29.30;19.95;100102.72;5099020;28;818;-29
2021/01/14 01:04:06;;;;;;;;;;;;;;;29.06;20.19;100106.97;5099268;28;794;-36
2021/01/14 01:06:32;;;;;;;;;;;;;;;28.56;21.00;100105.53;5098792;28;815;-32
2021/01/14 01:08:58;;;;;;;;;;;;;;;28.95;20.40;100108.41;5098344;28;930;-27
2021/01/14 01:11:23;;;;;;;;;;;;;;;29.21;20.03;100112.13;5098854;28;743;-32
2021/01/14 01:13:49;;;;;;;;;;;;;;;29.37;20.18;100108.13;5098634;28;1905;-32
2021/01/14 01:16:17;;;;;;;;;;;;;;;29.24;20.14;100105.44;5099188;28;862;-35
2021/01/14 01:18:42;;;;;;;;;;;;;;;28.51;20.78;100099.91;5098747;28;1173;-35
2021/01/14 01:21:07;;;;;;;;;;;;;;;28.85;20.79;100100.72;5098530;28;715;-35
2021/01/14 01:23:33;;;;;;;;;;;;;;;29.19;20.08;100095.25;5081887;28;946;-35
2021/01/14 01:25:58;;;;;;;;;;;;;;;29.24;19.83;100081.06;5078193;28;1099;-36
2021/01/14 01:28:23;;;;;;;;;;;;;;;29.24;20.04;100078.34;5078477;28;815;-32
2021/01/14 01:30:49;;;;;;;;;;;;;;;28.76;20.13;100078.44;5078075;28;774;-31
2021/01/14 01:33:14;;;;;;;;;;;;;;;28.51;20.62;100081.78;5078718;28;803;-35
2021/01/14 01:35:39;;;;;;;;;;;;;;;29.06;20.25;100067.16;5078352;28;1909;-35
2021/01/14 01:38:04;;;;;;;;;;;;;;;29.10;19.83;100070.28;5090623;28;974;-35
2021/01/14 01:40:30;;;;;;;;;;;;;;;29.24;19.66;100062.09;5098133;28;763;-31
2021/01/14 01:42:55;;;;;;;;;;;;;;;28.92;20.08;100068.22;5097545;28;800;-31
2021/01/14 01:45:21;;;;;;;;;;;;;;;28.54;20.53;100072.44;5098473;28;790;-36
2021/01/14 01:47:46;;;;;;;;;;;;;;;28.60;20.28;100067.03;5097994;28;811;-29
2021/01/14 01:50:11;;;;;;;;;;;;;;;28.67;20.61;100074.28;5098562;28;828;-36
2021/01/14 01:52:37;;;;;;;;;;;;;;;28.55;20.64;100074.09;5096845;28;946;-28
2021/01/14 01:55:03;;;;;;;;;;;;;;;28.82;20.30;100083.03;5096895;28;1966;-29
2021/01/14 01:57:28;;;;;;;;;;;;;;;29.06;19.83;100088.81;5098244;28;787;-27
2021/01/14 01:59:53;;;;;;;;;;;;;;;29.23;19.83;100085.66;5098427;28;860;-34
2021/01/14 02:02:19;;;;;;;;;;;;;;;29.24;19.86;100087.31;5097923;28;717;-32
2021/01/14 02:04:45;;;;;;;;;;;;;;;28.57;20.60;100077.44;5097795;28;826;-31
2021/01/14 02:07:10;;;;;;;;;;;;;;;28.58;20.60;100081.78;5097139;28;1011;-36
2021/01/14 02:09:35;;;;;;;;;;;;;;;28.66;20.57;100078.06;5096026;28;878;-31
2021/01/14 02:12:03;;;;;;;;;;;;;;;28.66;20.33;100075.34;5097493;28;1015;-35
2021/01/14 02:14:29;;;;;;;;;;;;;;;28.80;20.50;100084.25;5095568;28;1951;-28
2021/01/14 02:16:54;;;;;;;;;;;;;;;29.19;20.09;100082.56;5096640;28;904;-37
2021/01/14 02:19:38;;;;;;;;;;;;;;;28.89;20.24;100084.88;5096559;28;825;-30
2021/01/14 02:22:11;;;;;;;;;;;;;;;28.88;19.89;100092.16;5091685;28;1161;-31
2021/01/14 02:24:39;;;;;;;;;;;;;;;28.27;20.65;100096.75;5075321;28;1548;-29
2021/01/14 02:27:04;;;;;;;;;;;;;;;28.22;20.90;100092.81;5076557;28;787;-30
2021/01/14 02:29:29;;;;;;;;;;;;;;;28.59;20.91;100105.13;5077288;28;803;-35
2021/01/14 02:31:55;;;;;;;;;;;;;;;28.81;20.35;100100.28;5075677;28;767;-30
2021/01/14 02:34:20;;;;;;;;;;;;;;;28.78;20.39;100099.91;5077216;28;1918;-32
2021/01/14 02:36:45;;;;;;;;;;;;;;;28.68;20.54;100094.91;5078356;28;926;-31
2021/01/14 02:39:10;;;;;;;;;;;;;;;28.66;20.44;100097.81;5096671;28;854;-36
2021/01/14 02:41:36;;;;;;;;;;;;;;;28.40;20.63;100099.50;5096671;28;861;-32
2021/01/14 02:44:01;;;;;;;;;;;;;;;28.33;21.40;100101.34;5097269;28;767;-29
2021/01/14 02:46:26;;;;;;;;;;;;;;;28.69;20.96;100093.88;5096087;28;859;-32
2021/01/14 02:49:03;;;;;;;;;;;;;;;28.92;20.30;100096.13;5097082;28;837;-36
2021/01/14 02:51:38;;;;;;;;;;;;;;;28.76;20.94;100091.16;5095760;28;813;-29
2021/01/14 02:54:07;;;;;;;;;;;;;;;28.39;21.01;100094.28;5091156;28;1901;-35
2021/01/14 02:56:33;;;;;;;;;;;;;;;28.44;21.44;100094.50;5097484;28;803;-31
2021/01/14 02:58:58;;;;;;;;;;;;;;;28.75;20.65;100090.31;5097145;28;736;-30
2021/01/14 03:01:23;;;;;;;;;;;;;;;28.81;20.44;100085.94;5096623;28;744;-32
2021/01/14 03:03:49;;;;;;;;;;;;;;;28.66;20.87;100081.56;5097254;28;795;-33
2021/01/14 03:06:14;;;;;;;;;;;;;;;28.68;20.89;100087.63;5096971;28;839;-30
2021/01/14 03:08:39;;;;;;;;;;;;;;;28.58;21.04;100087.19;5096317;28;993;-32
2021/01/14 03:11:07;;;;;;;;;;;;;;;28.34;21.42;100092.22;5097049;28;754;-34
2021/01/14 03:13:33;;;;;;;;;;;;;;;28.40;21.41;100094.09;5096795;28;1968;-31
2021/01/14 03:15:58;;;;;;;;;;;;;;;28.65;20.80;100093.44;5096711;28;818;-32
2021/01/14 03:18:23;;;;;;;;;;;;;;;28.70;21.02;100098.22;5096247;28;1153;-28
2021/01/14 03:20:49;;;;;;;;;;;;;;;28.80;20.83;100101.34;5096840;28;1009;-35
2021/01/14 03:23:14;;;;;;;;;;;;;;;28.40;21.37;100099.50;5082698;28;1005;-34
2021/01/14 03:25:40;;;;;;;;;;;;;;;28.41;21.32;100082.22;5076559;28;1324;-35
2021/01/14 03:28:05;;;;;;;;;;;;;;;28.57;21.05;100086.38;5076541;28;862;-30
2021/01/14 03:30:30;;;;;;;;;;;;;;;28.76;20.80;100077.63;5076193;28;775;-34
2021/01/14 03:32:56;;;;;;;;;;;;;;;28.73;20.94;100079.69;5076613;28;772;-30
2021/01/14 03:35:22;;;;;;;;;;;;;;;28.52;21.01;100085.34;5080237;28;1914;-34
2021/01/14 03:37:47;;;;;;;;;;;;;;;28.20;21.00;100080.50;5090097;28;930;-33
2021/01/14 03:40:13;;;;;;;;;;;;;;;28.26;21.33;100076.97;5100831;28;767;-32
2021/01/14 03:42:38;;;;;;;;;;;;;;;28.55;20.93;100074.09;5100848;28;775;-34
2021/01/14 03:45:07;;;;;;;;;;;;;;;28.60;21.04;100071.59;5100463;28;759;-28
2021/01/14 03:47:32;;;;;;;;;;;;;;;28.58;21.17;100076.38;5100734;28;743;-34
2021/01/14 03:49:57;;;;;;;;;;;;;;;28.52;21.00;100078.06;5100272;28;823;-31
2021/01/14 03:52:23;;;;;;;;;;;;;;;28.47;21.07;100077.84;5100003;28;1013;-33
2021/01/14 03:54:48;;;;;;;;;;;;;;;28.31;21.47;100077.19;5100527;28;1901;-30
2021/01/14 03:57:14;;;;;;;;;;;;;;;28.43;21.08;100077.44;5100787;28;836;-31
2021/01/14 03:59:39;;;;;;;;;;;;;;;28.56;21.24;100083.91;5100129;28;811;-31
2021/01/14 04:02:07;;;;;;;;;;;;;;;28.70;21.04;100087.41;5100413;28;751;-32
2021/01/14 04:04:36;;;;;;;;;;;;;;;28.58;21.21;100082.63;5100266;28;799;-30
2021/01/14 04:07:01;;;;;;;;;;;;;;;28.33;21.10;100079.72;5099853;28;953;-33
2021/01/14 04:09:27;;;;;;;;;;;;;;;28.31;21.35;100088.00;5100178;28;825;-29
2021/01/14 04:11:52;;;;;;;;;;;;;;;28.28;21.29;100085.72;5100619;28;858;-27
2021/01/14 04:14:20;;;;;;;;;;;;;;;27.82;21.62;100082.75;5099919;28;1971;-30
2021/01/14 04:16:47;;;;;;;;;;;;;;;27.18;23.31;100076.66;5099768;28;1118;-27
2021/01/14 04:19:13;;;;;;;;;;;;;;;27.71;22.36;100086.06;5099974;28;738;-25
2021/01/14 04:21:38;;;;;;;;;;;;;;;27.15;21.58;100083.28;5098462;28;1052;-26
2021/01/14 04:24:03;;;;;;;;;;;;;;;26.22;24.26;100072.41;5079563;28;1050;-32
2021/01/14 04:26:29;;;;;;;;;;;;;;;26.00;24.92;100076.97;5080109;28;740;-27
2021/01/14 04:28:54;;;;;;;;;;;;;;;27.45;22.47;100083.00;5078985;28;973;-29
2021/01/14 04:31:19;;;;;;;;;;;;;;;27.78;22.13;100077.97;5079733;28;795;-25
2021/01/14 04:33:44;;;;;;;;;;;;;;;27.80;22.05;100078.56;5079928;28;1922;-24
2021/01/14 04:36:10;;;;;;;;;;;;;;;27.72;22.46;100085.00;5079226;28;819;-26
2021/01/14 04:38:35;;;;;;;;;;;;;;;27.71;22.35;100076.06;5096251;28;973;-28
2021/01/14 04:41:01;;;;;;;;;;;;;;;27.77;22.23;100082.53;5099892;28;811;-31
2021/01/14 04:43:27;;;;;;;;;;;;;;;27.81;22.22;100086.47;5099185;28;874;-27
2021/01/14 04:45:53;;;;;;;;;;;;;;;25.12;21.08;100075.91;5099020;28;873;-35
2021/01/14 04:48:18;;;;;;;;;;;;;;;23.42;22.32;100074.81;5099604;28;827;-31
2021/01/14 04:50:44;;;;;;;;;;;;;;;22.96;21.45;100076.25;5099459;28;783;-32
2021/01/14 04:53:09;;;;;;;;;;;;;;;22.73;21.03;100076.97;5097821;28;951;-29
2021/01/14 04:55:41;;;;;;;;;;;;;;;22.44;21.14;100076.47;5097213;28;1898;-30
2021/01/14 04:58:06;;;;;;;;;;;;;;;25.32;20.12;100089.63;5099147;28;870;-36
2021/01/14 05:00:31;;;;;;;;;;;;;;;17.87;23.59;100075.47;5098083;28;807;-41
2021/01/14 05:03:04;;;;;;;;;;;;;;;15.66;25.29;100086.72;5098005;28;803;-29
2021/01/14 05:05:33;;;;;;;;;;;;;;;17.85;22.39;100088.06;5098510;28;1225;-27
2021/01/14 05:08:08;;;;;;;;;;;;;;;19.24;20.82;100079.16;5098698;28;1148;-39
2021/01/14 05:10:34;;;;;;;;;;;;;;;19.66;20.74;100084.03;5099173;28;854;-37
2021/01/14 05:12:59;;;;;;;;;;;;;;;19.99;20.92;100083.53;5098918;28;811;-33
2021/01/14 05:15:25;;;;;;;;;;;;;;;19.95;21.14;100088.31;5099444;28;1964;-29
2021/01/14 05:17:51;;;;;;;;;;;;;;;19.87;21.27;100088.25;5098660;28;1090;-39
2021/01/14 05:20:16;;;;;;;;;;;;;;;21.14;21.05;100095.34;5098392;28;771;-30
2021/01/14 05:22:41;;;;;;;;;;;;;;;24.19;18.96;100099.25;5089589;28;945;-36
2021/01/14 05:25:07;;;;;;;;;;;;;;;25.29;18.95;100103.47;5078483;28;1167;-29
2021/01/14 05:27:33;;;;;;;;;;;;;;;25.62;19.61;100102.22;5078514;28;751;-27
2021/01/14 05:30:02;;;;;;;;;;;;;;;25.82;20.43;100102.50;5078332;28;767;-30
2021/01/14 05:32:37;;;;;;;;;;;;;;;26.34;20.40;100104.28;5078154;28;827;-41
2021/01/14 05:35:06;;;;;;;;;;;;;;;26.67;20.20;100113.66;5078292;28;1965;-27
2021/01/14 05:37:31;;;;;;;;;;;;;;;26.88;20.06;100107.38;5085569;28;1001;-30
2021/01/14 05:39:57;;;;;;;;;;;;;;;27.10;20.15;100094.69;5096947;28;511;-28
2021/01/14 05:42:22;;;;;;;;;;;;;;;27.50;19.88;100093.22;5097292;28;752;-26
2021/01/14 05:44:47;;;;;;;;;;;;;;;27.53;20.02;100098.22;5098491;28;824;-41
2021/01/14 05:47:22;;;;;;;;;;;;;;;27.79;19.66;100096.69;5097956;28;815;-28
2021/01/14 05:49:58;;;;;;;;;;;;;;;27.77;19.88;100106.00;5098070;28;829;-32
2021/01/14 05:52:24;;;;;;;;;;;;;;;28.13;19.29;100110.25;5097862;28;941;-25
2021/01/14 05:54:53;;;;;;;;;;;;;;;28.14;19.75;100098.41;5096872;28;1901;-39
2021/01/14 05:57:18;;;;;;;;;;;;;;;28.21;19.67;100104.63;5096985;28;1416;-27
2021/01/14 05:59:43;;;;;;;;;;;;;;;28.26;19.78;100100.50;5097014;28;751;-31
2021/01/14 06:02:09;;;;;;;;;;;;;;;28.30;19.70;100107.16;5096404;28;867;-32
2021/01/14 06:04:34;;;;;;;;;;;;;;;28.44;19.58;100103.47;5096477;28;973;-28
2021/01/14 06:07:04;;;;;;;;;;;;;;;28.43;19.46;100115.31;5096850;28;830;-27
2021/01/14 06:09:30;;;;;;;;;;;;;;;28.52;19.60;100107.81;5095034;28;983;-28
2021/01/14 06:12:08;;;;;;;;;;;;;;;28.63;19.39;100109.06;5095952;28;1379;-28
2021/01/14 06:14:33;;;;;;;;;;;;;;;28.93;18.93;100113.19;5097797;28;1893;-27
2021/01/14 06:16:59;;;;;;;;;;;;;;;29.40;18.68;100117.69;5097679;28;1125;-30
2021/01/14 06:19:25;;;;;;;;;;;;;;;29.74;18.59;100125.69;5097852;28;820;-29
2021/01/14 06:21:55;;;;;;;;;;;;;;;29.91;18.25;100124.13;5095080;28;1001;-30
2021/01/14 06:24:31;;;;;;;;;;;;;;;30.09;18.53;100129.88;5077018;28;1225;-33
2021/01/14 06:27:05;;;;;;;;;;;;;;;30.06;18.57;100123.84;5084984;28;835;-30
2021/01/14 06:29:31;;;;;;;;;;;;;;;30.16;18.80;100128.78;5097164;28;862;-33
2021/01/14 06:32:15;;;;;;;;;;;;;;;30.22;18.56;100137.13;5097449;28;834;-25
2021/01/14 06:34:41;;;;;;;;;;;;;;;30.36;18.47;100136.00;5097073;28;1913;-34
2021/01/14 06:37:10;;;;;;;;;;;;;;;30.49;18.45;100137.78;5096751;28;914;-27
2021/01/14 06:39:39;;;;;;;;;;;;;;;30.52;18.88;100136.50;5097424;28;840;-32
2021/01/14 06:42:22;;;;;;;;;;;;;;;30.57;18.88;100142.09;5096953;28;779;-31
2021/01/14 06:44:51;;;;;;;;;;;;;;;30.57;18.70;100144.81;5097206;28;839;-30
2021/01/14 06:47:43;;;;;;;;;;;;;;;30.61;18.69;100147.91;5097308;28;814;-28
2021/01/14 06:50:17;;;;;;;;;;;;;;;30.73;18.88;100148.84;5093635;28;1343;-37
2021/01/14 06:53:00;;;;;;;;;;;;;;;30.81;18.87;100158.63;5096813;28;1418;-37
2021/01/14 06:55:27;;;;;;;;;;;;;;;30.74;18.79;100157.81;5097074;28;1905;-31
2021/01/14 06:57:56;;;;;;;;;;;;;;;30.85;18.77;100145.41;5096618;28;782;-29
2021/01/14 07:00:21;;;;;;;;;;;;;;;30.87;18.81;100146.88;5097141;28;791;-37
2021/01/14 07:03:05;;;;;;;;;;;;;;;30.90;18.63;100148.31;5097029;28;845;-39
2021/01/14 07:05:37;;;;;;;;;;;;;;;30.93;18.64;100142.41;5095426;28;735;-27
2021/01/14 07:08:18;;;;;;;;;;;;;;;30.98;18.50;100136.34;5096587;28;946;-39
2021/01/14 07:10:45;;;;;;;;;;;;;;;31.01;18.52;100138.59;5095650;28;759;-39
2021/01/14 07:13:11;;;;;;;;;;;;;;;31.08;18.45;100135.81;5095446;28;838;-37
2021/01/14 07:15:36;;;;;;;;;;;;;;;31.07;18.61;100142.28;5095857;28;1996;-38
2021/01/14 07:18:02;;;;;;;;;;;;;;;31.15;18.46;100136.56;5095755;28;1174;-38
2021/01/14 07:20:27;;;;;;;;;;;;;;;31.14;18.46;100143.06;5096612;28;886;-31
2021/01/14 07:22:59;;;;;;;;;;;;;;;31.20;18.51;100150.28;5085287;28;1001;-30
2021/01/14 07:25:25;;;;;;;;;;;;;;;31.30;18.35;100149.78;5076269;28;1107;-27
2021/01/14 07:27:50;;;;;;;;;;;;;;;31.47;18.21;100146.47;5076288;28;833;-32
2021/01/14 07:30:16;;;;;;;;;;;;;;;31.56;18.28;100152.44;5075448;28;779;-34
2021/01/14 07:32:47;;;;;;;;;;;;;;;31.59;18.30;100152.81;5077002;28;982;-37
2021/01/14 07:35:31;;;;;;;;;;;;;;;31.67;18.27;100148.94;5076098;28;1917;-31
2021/01/14 07:37:56;;;;;;;;;;;;;;;31.81;18.04;100148.78;5087455;28;984;-33
2021/01/14 07:40:28;;;;;;;;;;;;;;;31.87;17.98;100143.25;5096768;28;810;-36
2021/01/14 07:42:54;;;;;;;;;;;;;;;31.84;17.67;100138.28;5096306;28;829;-35
2021/01/14 07:45:19;;;;;;;;;;;;;;;31.79;17.46;100143.56;5096957;28;759;-38
2021/01/14 07:47:44;;;;;;;;;;;;;;;31.69;18.15;100144.13;5095838;28;823;-30
2021/01/14 07:50:28;;;;;;;;;;;;;;;31.83;18.06;100146.66;5096278;28;759;-34
2021/01/14 07:52:54;;;;;;;;;;;;;;;31.87;17.84;100148.69;5096479;28;953;-38
2021/01/14 07:55:25;;;;;;;;;;;;;;;31.37;15.75;100155.97;5096821;28;1985;-33
2021/01/14 07:57:59;;;;;;;;;;;;;;;25.37;16.05;100159.91;5096174;28;819;-33
2021/01/14 08:00:24;;;;;;;;;;;;;;;23.75;16.64;100155.22;5096570;28;791;-28
2021/01/14 08:03:06;;;;;;;;;;;;;;;27.74;16.60;100159.41;5096164;28;878;-32
2021/01/14 08:05:56;;;;;;;;;;;;;;;29.92;14.77;100161.06;5096284;28;838;-34
2021/01/14 08:08:31;;;;;;;;;;;;;;;30.58;14.26;100156.50;5095951;28;1038;-36
2021/01/14 08:11:21;;;;;;;;;;;;;;;30.92;14.56;100165.22;5096086;28;735;-32
2021/01/14 08:14:01;;;;;;;;;;;;;;;31.23;14.29;100165.34;5096258;28;1901;-34
2021/01/14 08:16:46;;;;;;;;;;;;;;;31.47;14.26;100166.34;5096527;28;746;-33
2021/01/14 08:19:31;;;;;;;;;;;;;;;31.39;14.53;100170.19;5074855;28;1781;-32
2021/01/14 08:22:02;;;;;;;;;;;;;;;31.35;14.95;100163.50;5081417;28;943;-33
2021/01/14 08:24:46;;;;;;;;;;;;;;;31.56;14.64;100163.31;5099639;28;1296;-37
2021/01/14 08:27:11;;;;;;;;;;;;;;;31.49;15.08;100169.66;5099146;28;799;-30
2021/01/14 08:29:40;;;;;;;;;;;;;;;31.42;15.38;100168.06;5100125;28;783;-31
2021/01/14 08:32:25;;;;;;;;;;;;;;;31.69;15.20;100165.88;5099931;28;761;-30
2021/01/14 08:34:50;;;;;;;;;;;;;;;31.73;15.28;100168.97;5098865;28;1914;-35
2021/01/14 08:37:24;;;;;;;;;;;;;;;31.70;15.39;100172.97;5098002;28;1001;-26
2021/01/14 08:39:49;;;;;;;;;;;;;;;31.59;15.33;100179.16;5098567;28;1470;-39
2021/01/14 08:42:14;;;;;;;;;;;;;;;31.51;15.56;100178.41;5097894;28;1328;-27
2021/01/14 08:44:40;;;;;;;;;;;;;;;31.75;15.83;100173.09;5099985;28;771;-29
2021/01/14 08:47:05;;;;;;;;;;;;;;;31.93;15.65;100170.59;5098460;28;862;-31
2021/01/14 08:49:35;;;;;;;;;;;;;;;29.23;12.37;100169.59;5098864;28;922;-36
2021/01/14 08:52:04;;;;;;;;;;;;;;;26.78;13.81;100157.13;5097829;28;1561;-36
2021/01/14 08:54:30;;;;;;;;;;;;;;;25.40;14.68;100148.78;5098216;28;1901;-34
2021/01/14 08:57:02;;;;;;;;;;;;;;;24.84;15.01;100152.66;5099124;28;865;-34
2021/01/14 08:59:28;;;;;;;;;;;;;;;24.69;14.89;100149.94;5099147;28;746;-35
2021/01/14 09:01:56;;;;;;;;;;;;;;;24.40;14.99;100155.03;5099255;28;771;-33
2021/01/14 09:04:25;;;;;;;;;;;;;;;25.03;15.50;100148.66;5099166;28;779;-33
2021/01/14 09:06:50;;;;;;;;;;;;;;;27.24;15.18;100151.47;5098995;28;938;-35
2021/01/14 09:09:15;;;;;;;;;;;;;;;28.19;15.10;100152.72;5098899;28;782;-35
2021/01/14 09:11:41;;;;;;;;;;;;;;;28.69;14.40;100161.53;5099146;28;760;-31
2021/01/14 09:14:13;;;;;;;;;;;;;;;28.98;14.39;100151.31;5099123;28;1914;-28
2021/01/14 09:16:39;;;;;;;;;;;;;;;29.20;14.43;100157.34;5099206;28;806;-36
2021/01/14 09:19:11;;;;;;;;;;;;;;;29.29;14.60;100147.13;5098520;28;1248;-33
2021/01/14 09:21:36;;;;;;;;;;;;;;;29.42;14.77;100150.81;5098797;28;1013;-29
2021/01/14 09:24:08;;;;;;;;;;;;;;;29.57;14.80;100137.00;5078522;28;1071;-29
2021/01/14 09:26:33;;;;;;;;;;;;;;;29.64;15.04;100131.59;5078556;28;802;-28
2021/01/14 09:28:59;;;;;;;;;;;;;;;29.73;15.41;100135.72;5078462;28;759;-31
2021/01/14 09:31:24;;;;;;;;;;;;;;;29.82;15.40;100134.44;5076687;28;803;-30
2021/01/14 09:33:50;;;;;;;;;;;;;;;28.72;17.06;100134.88;5076587;28;1918;-27
2021/01/14 09:36:18;;;;;;;;;;;;;;;28.25;17.36;100124.00;5078422;28;827;-27
2021/01/14 09:38:45;;;;;;;;;;;;;;;28.53;18.34;100124.91;5096088;28;930;-34
2021/01/14 09:41:11;;;;;;;;;;;;;;;28.53;18.70;100120.31;5097911;28;808;-28
2021/01/14 09:43:40;;;;;;;;;;;;;;;28.60;18.82;100123.84;5096902;28;1014;-29
2021/01/14 09:46:09;;;;;;;;;;;;;;;28.78;19.30;100116.97;5098108;28;815;-28
2021/01/14 09:48:34;;;;;;;;;;;;;;;28.62;19.12;100111.97;5097687;28;826;-29
2021/01/14 09:51:00;;;;;;;;;;;;;;;28.59;19.24;100107.81;5098519;28;743;-29
2021/01/14 09:53:26;;;;;;;;;;;;;;;28.63;19.41;100110.94;5096477;28;1195;-31
2021/01/14 09:55:51;;;;;;;;;;;;;;;28.66;19.36;100105.13;5097876;28;1959;-33
2021/01/14 09:58:18;;;;;;;;;;;;;;;28.68;19.58;100093.03;5096851;28;855;-29
2021/01/14 10:00:44;;;;;;;;;;;;;;;28.80;19.69;100089.69;5097658;28;1442;-33
2021/01/14 10:03:10;;;;;;;;;;;;;;;28.55;19.74;100084.91;5097534;28;822;-33
2021/01/14 10:05:35;;;;;;;;;;;;;;;28.69;19.97;100086.59;5097968;28;751;-32
2021/01/14 10:08:01;;;;;;;;;;;;;;;28.77;20.55;100084.69;5096691;28;942;-33
2021/01/14 10:10:30;;;;;;;;;;;;;;;28.81;20.26;100084.06;5096925;28;835;-26
2021/01/14 10:12:55;;;;;;;;;;;;;;;28.65;19.78;100079.06;5096335;28;852;-24
2021/01/14 10:15:21;;;;;;;;;;;;;;;27.78;17.69;100077.97;5097827;28;1898;-29
2021/01/14 10:17:46;;;;;;;;;;;;;;;25.80;16.82;100064.97;5097298;28;1178;-33
2021/01/14 10:20:12;;;;;;;;;;;;;;;25.52;17.04;100057.56;5097647;28;1044;-34
2021/01/14 10:22:46;;;;;;;;;;;;;;;25.37;16.66;100048.69;5088810;28;953;-33
2021/01/14 10:25:12;;;;;;;;;;;;;;;25.09;16.72;100052.88;5076752;28;1091;-29
2021/01/14 10:27:37;;;;;;;;;;;;;;;24.78;16.32;100053.84;5077363;28;795;-35
2021/01/14 10:30:21;;;;;;;;;;;;;;;25.09;16.79;100042.09;5077321;28;838;-34
2021/01/14 10:32:46;;;;;;;;;;;;;;;25.39;16.51;100031.31;5077123;28;744;-31
2021/01/14 10:35:23;;;;;;;;;;;;;;;24.65;16.75;100022.22;5082411;28;1977;-36
2021/01/14 10:37:48;;;;;;;;;;;;;;;24.56;17.25;100025.00;5097090;28;938;-33
2021/01/14 10:40:17;;;;;;;;;;;;;;;25.50;16.35;100018.38;5095091;28;1340;-37
2021/01/14 10:42:46;;;;;;;;;;;;;;;25.30;16.02;100027.91;5097571;28;803;-38
2021/01/14 10:45:12;;;;;;;;;;;;;;;25.31;16.31;100015.25;5096946;28;766;-38
2021/01/14 10:47:38;;;;;;;;;;;;;;;25.38;15.84;100009.97;5097227;28;756;-31
2021/01/14 10:50:19;;;;;;;;;;;;;;;25.42;15.96;100005.88;5097417;28;821;-38
2021/01/14 10:52:54;;;;;;;;;;;;;;;25.66;15.62;100001.16;5097222;28;988;-32
2021/01/14 10:55:19;;;;;;;;;;;;;;;25.88;15.46;99998.50;5097179;28;1909;-31
2021/01/14 10:57:48;;;;;;;;;;;;;;;26.16;15.60;100003.91;5097119;28;846;-29
2021/01/14 11:00:15;;;;;;;;;;;;;;;25.75;15.10;99986.56;5097313;28;735;-30
2021/01/14 11:02:40;;;;;;;;;;;;;;;25.42;15.58;99977.06;5096518;28;838;-37
2021/01/14 11:05:08;;;;;;;;;;;;;;;25.54;15.93;99972.03;5097314;28;834;-35
2021/01/14 11:07:34;;;;;;;;;;;;;;;25.82;15.57;99967.78;5096356;28;1012;-26
2021/01/14 11:09:59;;;;;;;;;;;;;;;26.60;16.71;99967.94;5096577;28;829;-29
2021/01/14 11:12:24;;;;;;;;;;;;;;;27.42;16.54;99966.44;5095644;28;1384;-31
2021/01/14 11:14:51;;;;;;;;;;;;;;;27.92;16.00;99970.69;5096611;28;1906;-31
2021/01/14 11:17:16;;;;;;;;;;;;;;;28.33;16.00;99960.72;5097054;28;1154;-33
2021/01/14 11:19:41;;;;;;;;;;;;;;;28.48;16.14;99958.59;5096956;28;819;-36
2021/01/14 11:22:07;;;;;;;;;;;;;;;28.51;16.07;99961.94;5095514;28;910;-31
2021/01/14 11:24:32;;;;;;;;;;;;;;;28.74;16.42;99956.03;5096339;28;1144;-30
2021/01/14 11:26:57;;;;;;;;;;;;;;;28.92;16.38;99949.09;5096555;28;858;-34
2021/01/14 11:29:22;;;;;;;;;;;;;;;29.04;16.70;99952.00;5096784;28;779;-31
2021/01/14 11:31:48;;;;;;;;;;;;;;;28.85;16.79;99952.66;5096412;28;862;-26
2021/01/14 11:34:13;;;;;;;;;;;;;;;29.05;16.87;99940.94;5096955;28;2328;-33
2021/01/14 11:36:38;;;;;;;;;;;;;;;29.30;16.63;99932.06;5096599;28;929;-31
2021/01/14 11:39:03;;;;;;;;;;;;;;;29.38;16.92;99932.88;5096082;28;885;-27
2021/01/14 11:41:29;;;;;;;;;;;;;;;29.31;16.92;99924.78;5096985;28;751;-25
2021/01/14 11:43:54;;;;;;;;;;;;;;;29.23;17.10;99922.31;5096790;28;741;-31
2021/01/14 11:46:22;;;;;;;;;;;;;;;29.57;17.07;99931.03;5095927;28;886;-27
2021/01/14 11:48:48;;;;;;;;;;;;;;;29.70;17.13;99914.72;5096580;28;832;-33
2021/01/14 11:51:13;;;;;;;;;;;;;;;29.53;17.39;99921.72;5096604;28;755;-26
2021/01/14 11:53:38;;;;;;;;;;;;;;;29.36;17.46;99914.13;5095880;28;954;-35
2021/01/14 11:56:04;;;;;;;;;;;;;;;29.66;17.51;99913.50;5098078;28;1979;-35
2021/01/14 11:58:29;;;;;;;;;;;;;;;29.78;17.51;99900.06;5100889;28;740;-28
2021/01/14 12:00:55;;;;;;;;;;;;;;;29.89;17.38;99894.97;5100001;28;878;-33
2021/01/14 12:03:20;;;;;;;;;;;;;;;29.65;17.57;99897.44;5100513;28;819;-32
2021/01/14 12:05:45;;;;;;;;;;;;;;;29.66;17.82;99893.72;5100521;28;771;-31
2021/01/14 12:08:11;;;;;;;;;;;;;;;29.94;17.85;99893.25;5099133;28;961;-35
2021/01/14 12:10:36;;;;;;;;;;;;;;;30.17;17.65;99894.47;5100721;28;796;-26
2021/01/14 12:13:01;;;;;;;;;;;;;;;30.31;17.34;99888.94;5100255;28;779;-28
2021/01/14 12:15:27;;;;;;;;;;;;;;;30.13;17.64;99892.44;5099725;28;1898;-27
2021/01/14 12:17:52;;;;;;;;;;;;;;;29.90;18.16;99881.19;5100174;28;1118;-27
2021/01/14 12:20:17;;;;;;;;;;;;;;;30.16;17.87;99884.66;5100086;28;866;-26
2021/01/14 12:22:43;;;;;;;;;;;;;;;30.26;17.71;99877.94;5089663;28;941;-34
2021/01/14 12:25:09;;;;;;;;;;;;;;;30.13;17.83;99873.47;5079456;28;1091;-29
2021/01/14 12:27:34;;;;;;;;;;;;;;;29.94;18.00;99865.28;5079607;28;776;-28
2021/01/14 12:30:00;;;;;;;;;;;;;;;29.80;18.36;99861.88;5079295;28;892;-29
2021/01/14 12:32:26;;;;;;;;;;;;;;;30.21;17.96;99867.78;5079648;28;820;-28
2021/01/14 12:34:51;;;;;;;;;;;;;;;30.26;18.04;99859.75;5079456;28;1972;-34
2021/01/14 12:37:16;;;;;;;;;;;;;;;30.15;17.98;99858.59;5084767;28;993;-27
2021/01/14 12:39:42;;;;;;;;;;;;;;;29.99;18.48;99857.31;5099985;28;911;-34
2021/01/14 12:42:10;;;;;;;;;;;;;;;29.87;18.62;99851.81;5099676;28;842;-25
2021/01/14 12:44:35;;;;;;;;;;;;;;;30.35;18.00;99851.31;5099413;28;792;-28
2021/01/14 12:47:01;;;;;;;;;;;;;;;30.53;17.86;99854.00;5099684;28;790;-33
2021/01/14 12:49:26;;;;;;;;;;;;;;;30.37;18.12;99841.91;5099389;28;878;-26
2021/01/14 12:51:52;;;;;;;;;;;;;;;30.00;18.43;99845.41;5098923;28;1044;-28
2021/01/14 12:54:17;;;;;;;;;;;;;;;29.96;18.80;99837.97;5099510;28;1901;-26
2021/01/14 12:56:42;;;;;;;;;;;;;;;30.32;18.40;99839.03;5099286;28;755;-29
2021/01/14 12:59:08;;;;;;;;;;;;;;;29.89;19.36;99833.44;5099577;28;737;-27